Terminal Aerodrome Forecast
Issued by NWS

Home | Current Version | Previous Version | Text Only | Print | Product List | Glossary On
Versions: 1 2 3 4 5 6 7 8 9 10 11 12 13 14 15 16 17 18 19 20 21
000
FTUS43 KBIS 312300
TAFJMS
TAF
KJMS 312320Z 0100/0124 02016G24KT P6SM OVC060
      TEMPO 0100/0102 4SM -SN BKN045
     FM011600 36010KT P6SM BKN110
     FM011700 35009KT P6SM SCT110=

USA.gov is the U.S. government's official web portal to all federal, state and local government web resources and services.